Saltar para o conteúdo principal

Ponte De Lima - Anais (CIM)

ID 6211218 · 41.6981, -8.5224 mapa

Última leitura · 2026-05-09 19:00 (Europe/Lisbon)

Temperatura
12.0 °C
Humidade
92 %
Pressão
1,005.6 hPa
Precipitação
Radiação
486 W/m²
Velocidade do vento
9.4 km/h
Direcção do vento
SE · Sudeste

Histórico de 24 horas

Hora (Europe/Lisbon) Temperatura Humidade Pressão Chuva Vento Direcção
2026-05-09 19:00 12.0 °C 92 % 1,005.6 9.4 km/h SE
2026-05-09 18:00 12.9 °C 85 % 1,004.4 11.5 km/h SE
2026-05-09 17:00 12.4 °C 85 % 1,004.5 11.9 km/h SE
2026-05-09 16:00 13.1 °C 86 % 1,004.2 7.6 km/h E
2026-05-09 15:00 15.0 °C 81 % 1,003.1 11.2 km/h S
2026-05-09 14:00 14.2 °C 92 % 1,003.6 7.2 km/h S
2026-05-09 13:00 12.3 °C 93 % 1,004.5 5.8 km/h SE
2026-05-09 12:00 13.4 °C 82 % 1,004.0 4.0 km/h S
2026-05-09 11:00 15.3 °C 66 % 1,003.1 14.0 km/h SE
2026-05-09 10:00 14.5 °C 68 % 1,003.3 7.6 km/h SE
2026-05-09 09:00 13.6 °C 68 % 1,003.3 9.7 km/h SE
2026-05-09 08:00 13.2 °C 66 % 1,003.7 9.4 km/h SE
2026-05-09 07:00 12.8 °C 69 % 1,003.8 13.3 km/h SE
2026-05-09 06:00 12.8 °C 70 % 1,004.5 11.2 km/h SE
2026-05-09 05:00 12.8 °C 72 % 1,004.5 11.5 km/h SE
2026-05-09 04:00 11.8 °C 80 % 1,004.6 13.3 km/h SE
2026-05-09 03:00 11.2 °C 87 % 1,005.0 10.4 km/h SE
2026-05-09 02:00 12.4 °C 76 % 1,005.6 11.9 km/h SE
2026-05-09 01:00 14.4 °C 59 % 1,005.3 7.2 km/h S
2026-05-09 00:00 14.3 °C 56 % 1,005.4 7.9 km/h SE
2026-05-08 23:00 13.4 °C 62 % 1,006.5 5.8 km/h SE
2026-05-08 22:00 12.9 °C 68 % 1,006.6 3.6 km/h E
2026-05-08 21:00 12.5 °C 75 % 1,006.9 2.2 km/h NE
2026-05-08 20:00 15.2 °C 62 % 1,007.3 2.2 km/h NE